sensor_id;sensor_type;location;lat;lon;timestamp;P1;durP1;ratioP1;P2;durP2;ratioP2
10389;SDS011;5241;47.830;12.972;2022-11-03T00:01:32;13.07;;;7.40;;
10389;SDS011;5241;47.830;12.972;2022-11-03T00:03:58;14.07;;;7.27;;
10389;SDS011;5241;47.830;12.972;2022-11-03T00:06:23;11.63;;;7.27;;
10389;SDS011;5241;47.830;12.972;2022-11-03T00:08:49;13.47;;;7.60;;
10389;SDS011;5241;47.830;12.972;2022-11-03T00:11:14;14.13;;;9.63;;
10389;SDS011;5241;47.830;12.972;2022-11-03T00:13:41;10.97;;;8.17;;
10389;SDS011;5241;47.830;12.972;2022-11-03T00:16:08;10.80;;;7.17;;
10389;SDS011;5241;47.830;12.972;2022-11-03T00:18:35;12.10;;;8.57;;
10389;SDS011;5241;47.830;12.972;2022-11-03T00:21:05;15.80;;;8.73;;
10389;SDS011;5241;47.830;12.972;2022-11-03T00:23:32;11.03;;;8.50;;
10389;SDS011;5241;47.830;12.972;2022-11-03T00:26:19;12.23;;;9.53;;
10389;SDS011;5241;47.830;12.972;2022-11-03T00:28:50;15.17;;;9.00;;
10389;SDS011;5241;47.830;12.972;2022-11-03T00:31:18;12.33;;;9.03;;
10389;SDS011;5241;47.830;12.972;2022-11-03T00:33:48;11.40;;;8.10;;
10389;SDS011;5241;47.830;12.972;2022-11-03T00:36:16;13.47;;;8.50;;
10389;SDS011;5241;47.830;12.972;2022-11-03T00:38:44;12.33;;;7.70;;
10389;SDS011;5241;47.830;12.972;2022-11-03T00:41:11;15.63;;;8.10;;
10389;SDS011;5241;47.830;12.972;2022-11-03T00:43:37;12.33;;;7.30;;
10389;SDS011;5241;47.830;12.972;2022-11-03T00:46:04;10.50;;;6.07;;
10389;SDS011;5241;47.830;12.972;2022-11-03T00:48:31;10.57;;;6.37;;
10389;SDS011;5241;47.830;12.972;2022-11-03T00:51:17;9.60;;;6.30;;
10389;SDS011;5241;47.830;12.972;2022-11-03T00:53:49;8.43;;;6.13;;
10389;SDS011;5241;47.830;12.972;2022-11-03T00:56:25;9.87;;;6.43;;
10389;SDS011;5241;47.830;12.972;2022-11-03T00:58:51;9.03;;;6.70;;
10389;SDS011;5241;47.830;12.972;2022-11-03T01:03:49;14.93;;;12.47;;
10389;SDS011;5241;47.830;12.972;2022-11-03T01:06:36;12.27;;;8.67;;
10389;SDS011;5241;47.830;12.972;2022-11-03T01:09:19;11.47;;;7.40;;
10389;SDS011;5241;47.830;12.972;2022-11-03T01:12:02;12.63;;;6.73;;
10389;SDS011;5241;47.830;12.972;2022-11-03T01:14:33;9.47;;;6.43;;
10389;SDS011;5241;47.830;12.972;2022-11-03T01:17:03;8.57;;;6.50;;
10389;SDS011;5241;47.830;12.972;2022-11-03T01:19:29;8.87;;;5.97;;
10389;SDS011;5241;47.830;12.972;2022-11-03T01:21:55;7.43;;;5.67;;
10389;SDS011;5241;47.830;12.972;2022-11-03T01:24:21;8.93;;;6.10;;
10389;SDS011;5241;47.830;12.972;2022-11-03T01:26:46;13.17;;;5.80;;
10389;SDS011;5241;47.830;12.972;2022-11-03T01:29:12;10.00;;;6.13;;
10389;SDS011;5241;47.830;12.972;2022-11-03T01:31:38;7.60;;;6.20;;
10389;SDS011;5241;47.830;12.972;2022-11-03T01:34:03;8.63;;;6.17;;
10389;SDS011;5241;47.830;12.972;2022-11-03T01:36:29;8.60;;;6.40;;
10389;SDS011;5241;47.830;12.972;2022-11-03T01:38:55;9.47;;;7.03;;
10389;SDS011;5241;47.830;12.972;2022-11-03T01:41:22;10.27;;;6.73;;
10389;SDS011;5241;47.830;12.972;2022-11-03T01:43:50;11.43;;;6.60;;
10389;SDS011;5241;47.830;12.972;2022-11-03T01:46:46;7.63;;;6.13;;
10389;SDS011;5241;47.830;12.972;2022-11-03T01:49:21;6.77;;;5.97;;
10389;SDS011;5241;47.830;12.972;2022-11-03T01:52:01;8.30;;;5.70;;
10389;SDS011;5241;47.830;12.972;2022-11-03T01:54:35;7.27;;;6.13;;
10389;SDS011;5241;47.830;12.972;2022-11-03T01:57:03;8.40;;;6.07;;
10389;SDS011;5241;47.830;12.972;2022-11-03T01:59:33;8.50;;;6.17;;
10389;SDS011;5241;47.830;12.972;2022-11-03T02:02:00;8.63;;;6.23;;
10389;SDS011;5241;47.830;12.972;2022-11-03T02:04:28;7.83;;;6.13;;
10389;SDS011;5241;47.830;12.972;2022-11-03T02:09:49;7.83;;;5.40;;
10389;SDS011;5241;47.830;12.972;2022-11-03T02:12:15;8.03;;;5.00;;
10389;SDS011;5241;47.830;12.972;2022-11-03T02:14:48;6.97;;;5.13;;
10389;SDS011;5241;47.830;12.972;2022-11-03T02:17:24;6.67;;;4.40;;
10389;SDS011;5241;47.830;12.972;2022-11-03T02:19:54;6.70;;;4.70;;
10389;SDS011;5241;47.830;12.972;2022-11-03T02:28:06;6.90;;;5.27;;
10389;SDS011;5241;47.830;12.972;2022-11-03T02:36:27;10.73;;;5.90;;
10389;SDS011;5241;47.830;12.972;2022-11-03T02:41:37;9.90;;;6.50;;
10389;SDS011;5241;47.830;12.972;2022-11-03T02:44:04;10.10;;;6.10;;
10389;SDS011;5241;47.830;12.972;2022-11-03T02:46:35;9.77;;;6.40;;
10389;SDS011;5241;47.830;12.972;2022-11-03T02:49:03;10.00;;;5.80;;
10389;SDS011;5241;47.830;12.972;2022-11-03T02:51:29;9.47;;;5.47;;
10389;SDS011;5241;47.830;12.972;2022-11-03T02:54:28;8.60;;;5.60;;
10389;SDS011;5241;47.830;12.972;2022-11-03T02:57:00;10.83;;;6.53;;
10389;SDS011;5241;47.830;12.972;2022-11-03T02:59:44;10.43;;;5.80;;
10389;SDS011;5241;47.830;12.972;2022-11-03T03:02:18;8.87;;;6.20;;
10389;SDS011;5241;47.830;12.972;2022-11-03T03:04:52;11.37;;;7.20;;
10389;SDS011;5241;47.830;12.972;2022-11-03T03:07:25;8.87;;;6.37;;
10389;SDS011;5241;47.830;12.972;2022-11-03T03:10:05;12.23;;;6.30;;
10389;SDS011;5241;47.830;12.972;2022-11-03T03:12:36;14.23;;;6.10;;
10389;SDS011;5241;47.830;12.972;2022-11-03T03:15:07;8.50;;;6.13;;
10389;SDS011;5241;47.830;12.972;2022-11-03T03:17:40;8.97;;;6.37;;
10389;SDS011;5241;47.830;12.972;2022-11-03T03:20:30;10.40;;;6.80;;
10389;SDS011;5241;47.830;12.972;2022-11-03T03:23:20;11.37;;;6.77;;
10389;SDS011;5241;47.830;12.972;2022-11-03T03:26:00;11.70;;;7.47;;
10389;SDS011;5241;47.830;12.972;2022-11-03T03:28:41;11.37;;;6.73;;
10389;SDS011;5241;47.830;12.972;2022-11-03T03:31:13;8.73;;;6.77;;
10389;SDS011;5241;47.830;12.972;2022-11-03T03:33:43;10.63;;;6.97;;
10389;SDS011;5241;47.830;12.972;2022-11-03T03:36:12;10.90;;;6.47;;
10389;SDS011;5241;47.830;12.972;2022-11-03T03:38:41;13.73;;;8.27;;
10389;SDS011;5241;47.830;12.972;2022-11-03T03:41:12;10.53;;;6.80;;
10389;SDS011;5241;47.830;12.972;2022-11-03T03:43:46;15.37;;;7.77;;
10389;SDS011;5241;47.830;12.972;2022-11-03T03:46:16;14.37;;;8.27;;
10389;SDS011;5241;47.830;12.972;2022-11-03T03:48:43;11.00;;;7.60;;
10389;SDS011;5241;47.830;12.972;2022-11-03T03:51:09;12.10;;;7.83;;
10389;SDS011;5241;47.830;12.972;2022-11-03T03:53:36;13.70;;;9.60;;
10389;SDS011;5241;47.830;12.972;2022-11-03T03:56:02;12.83;;;8.67;;
10389;SDS011;5241;47.830;12.972;2022-11-03T03:58:29;15.87;;;8.60;;
10389;SDS011;5241;47.830;12.972;2022-11-03T04:00:55;14.20;;;8.10;;
10389;SDS011;5241;47.830;12.972;2022-11-03T04:03:22;17.33;;;9.03;;
10389;SDS011;5241;47.830;12.972;2022-11-03T04:05:49;12.50;;;8.53;;
10389;SDS011;5241;47.830;12.972;2022-11-03T04:08:16;13.77;;;8.50;;
10389;SDS011;5241;47.830;12.972;2022-11-03T04:10:42;13.50;;;7.80;;
10389;SDS011;5241;47.830;12.972;2022-11-03T04:13:31;11.80;;;8.07;;
10389;SDS011;5241;47.830;12.972;2022-11-03T04:16:15;13.07;;;7.57;;
10389;SDS011;5241;47.830;12.972;2022-11-03T04:19:00;14.60;;;8.47;;
10389;SDS011;5241;47.830;12.972;2022-11-03T04:21:45;12.17;;;8.03;;
10389;SDS011;5241;47.830;12.972;2022-11-03T04:24:29;14.90;;;9.03;;
10389;SDS011;5241;47.830;12.972;2022-11-03T04:26:56;14.93;;;9.57;;
10389;SDS011;5241;47.830;12.972;2022-11-03T04:29:40;14.93;;;8.77;;
10389;SDS011;5241;47.830;12.972;2022-11-03T04:32:13;14.20;;;9.03;;
10389;SDS011;5241;47.830;12.972;2022-11-03T04:34:41;14.50;;;8.37;;
10389;SDS011;5241;47.830;12.972;2022-11-03T04:37:12;15.33;;;8.80;;
10389;SDS011;5241;47.830;12.972;2022-11-03T04:39:39;24.30;;;10.33;;
10389;SDS011;5241;47.830;12.972;2022-11-03T04:42:11;19.47;;;10.20;;
10389;SDS011;5241;47.830;12.972;2022-11-03T04:44:44;13.20;;;8.33;;
10389;SDS011;5241;47.830;12.972;2022-11-03T04:47:11;15.53;;;8.47;;
10389;SDS011;5241;47.830;12.972;2022-11-03T04:49:37;20.00;;;9.70;;
10389;SDS011;5241;47.830;12.972;2022-11-03T04:52:13;13.57;;;8.90;;
10389;SDS011;5241;47.830;12.972;2022-11-03T04:54:46;13.80;;;9.93;;
10389;SDS011;5241;47.830;12.972;2022-11-03T04:57:15;15.00;;;10.10;;
10389;SDS011;5241;47.830;12.972;2022-11-03T04:59:44;20.33;;;10.07;;
10389;SDS011;5241;47.830;12.972;2022-11-03T05:02:12;13.87;;;9.40;;
10389;SDS011;5241;47.830;12.972;2022-11-03T05:04:40;15.03;;;9.77;;
10389;SDS011;5241;47.830;12.972;2022-11-03T05:09:52;18.77;;;10.93;;
10389;SDS011;5241;47.830;12.972;2022-11-03T05:12:18;17.53;;;10.53;;
10389;SDS011;5241;47.830;12.972;2022-11-03T05:14:44;17.60;;;11.37;;
10389;SDS011;5241;47.830;12.972;2022-11-03T05:17:25;20.43;;;11.80;;
10389;SDS011;5241;47.830;12.972;2022-11-03T05:20:01;18.27;;;10.73;;
10389;SDS011;5241;47.830;12.972;2022-11-03T05:22:28;18.03;;;10.03;;
10389;SDS011;5241;47.830;12.972;2022-11-03T05:25:01;14.57;;;9.60;;
10389;SDS011;5241;47.830;12.972;2022-11-03T05:27:46;19.50;;;11.07;;
10389;SDS011;5241;47.830;12.972;2022-11-03T05:30:12;14.80;;;10.40;;
10389;SDS011;5241;47.830;12.972;2022-11-03T05:32:38;16.70;;;11.07;;
10389;SDS011;5241;47.830;12.972;2022-11-03T05:35:07;17.53;;;10.40;;
10389;SDS011;5241;47.830;12.972;2022-11-03T05:37:44;14.77;;;9.93;;
10389;SDS011;5241;47.830;12.972;2022-11-03T05:40:20;19.17;;;10.83;;
10389;SDS011;5241;47.830;12.972;2022-11-03T05:42:50;18.67;;;10.83;;
10389;SDS011;5241;47.830;12.972;2022-11-03T05:45:39;18.23;;;11.60;;
10389;SDS011;5241;47.830;12.972;2022-11-03T05:48:13;19.07;;;11.70;;
10389;SDS011;5241;47.830;12.972;2022-11-03T05:50:44;24.30;;;16.83;;
10389;SDS011;5241;47.830;12.972;2022-11-03T05:53:18;19.20;;;12.50;;
10389;SDS011;5241;47.830;12.972;2022-11-03T05:55:53;16.57;;;11.57;;
10389;SDS011;5241;47.830;12.972;2022-11-03T06:00:54;19.87;;;13.33;;
10389;SDS011;5241;47.830;12.972;2022-11-03T06:03:27;19.20;;;13.27;;
10389;SDS011;5241;47.830;12.972;2022-11-03T06:05:53;17.90;;;11.70;;
10389;SDS011;5241;47.830;12.972;2022-11-03T06:08:23;20.03;;;12.30;;
10389;SDS011;5241;47.830;12.972;2022-11-03T06:10:50;14.67;;;10.87;;
10389;SDS011;5241;47.830;12.972;2022-11-03T06:13:19;13.93;;;10.70;;
10389;SDS011;5241;47.830;12.972;2022-11-03T06:15:58;15.87;;;10.97;;
10389;SDS011;5241;47.830;12.972;2022-11-03T06:18:34;21.27;;;13.60;;
10389;SDS011;5241;47.830;12.972;2022-11-03T06:21:15;15.73;;;11.47;;
10389;SDS011;5241;47.830;12.972;2022-11-03T06:23:45;16.53;;;11.70;;
10389;SDS011;5241;47.830;12.972;2022-11-03T06:26:21;15.40;;;10.77;;
10389;SDS011;5241;47.830;12.972;2022-11-03T06:28:50;15.43;;;10.90;;
10389;SDS011;5241;47.830;12.972;2022-11-03T06:31:18;14.17;;;10.13;;
10389;SDS011;5241;47.830;12.972;2022-11-03T06:33:47;12.37;;;10.30;;
10389;SDS011;5241;47.830;12.972;2022-11-03T06:36:15;13.27;;;8.77;;
10389;SDS011;5241;47.830;12.972;2022-11-03T06:38:49;12.63;;;9.17;;
10389;SDS011;5241;47.830;12.972;2022-11-03T06:41:24;13.03;;;9.43;;
10389;SDS011;5241;47.830;12.972;2022-11-03T06:43:52;12.27;;;9.33;;
10389;SDS011;5241;47.830;12.972;2022-11-03T06:46:21;12.70;;;9.27;;
10389;SDS011;5241;47.830;12.972;2022-11-03T06:48:48;12.60;;;8.90;;
10389;SDS011;5241;47.830;12.972;2022-11-03T06:51:26;14.97;;;9.40;;
10389;SDS011;5241;47.830;12.972;2022-11-03T06:53:53;11.73;;;9.57;;
10389;SDS011;5241;47.830;12.972;2022-11-03T06:56:23;16.43;;;9.47;;
10389;SDS011;5241;47.830;12.972;2022-11-03T06:58:52;12.97;;;9.23;;
10389;SDS011;5241;47.830;12.972;2022-11-03T07:01:26;12.43;;;8.97;;
10389;SDS011;5241;47.830;12.972;2022-11-03T07:03:56;9.53;;;7.83;;
10389;SDS011;5241;47.830;12.972;2022-11-03T07:06:48;11.07;;;7.03;;
10389;SDS011;5241;47.830;12.972;2022-11-03T07:09:23;8.13;;;7.10;;
10389;SDS011;5241;47.830;12.972;2022-11-03T07:11:52;10.53;;;8.10;;
10389;SDS011;5241;47.830;12.972;2022-11-03T07:14:22;10.77;;;8.07;;
10389;SDS011;5241;47.830;12.972;2022-11-03T07:21:51;9.60;;;7.33;;
10389;SDS011;5241;47.830;12.972;2022-11-03T07:26:59;13.50;;;8.50;;
10389;SDS011;5241;47.830;12.972;2022-11-03T07:29:37;8.73;;;7.83;;
10389;SDS011;5241;47.830;12.972;2022-11-03T07:32:04;10.03;;;7.50;;
10389;SDS011;5241;47.830;12.972;2022-11-03T07:34:38;7.77;;;6.70;;
10389;SDS011;5241;47.830;12.972;2022-11-03T07:37:03;8.60;;;6.57;;
10389;SDS011;5241;47.830;12.972;2022-11-03T07:39:32;12.27;;;9.37;;
10389;SDS011;5241;47.830;12.972;2022-11-03T07:42:02;11.53;;;9.40;;
10389;SDS011;5241;47.830;12.972;2022-11-03T07:44:35;10.57;;;8.97;;
10389;SDS011;5241;47.830;12.972;2022-11-03T07:47:01;11.17;;;7.97;;
10389;SDS011;5241;47.830;12.972;2022-11-03T07:49:27;9.40;;;7.60;;
10389;SDS011;5241;47.830;12.972;2022-11-03T07:51:57;8.27;;;7.37;;
10389;SDS011;5241;47.830;12.972;2022-11-03T07:54:29;9.60;;;8.27;;
10389;SDS011;5241;47.830;12.972;2022-11-03T07:56:58;11.07;;;7.57;;
10389;SDS011;5241;47.830;12.972;2022-11-03T07:59:30;9.97;;;7.77;;
10389;SDS011;5241;47.830;12.972;2022-11-03T08:01:59;9.80;;;7.53;;
10389;SDS011;5241;47.830;12.972;2022-11-03T08:04:27;10.03;;;8.57;;
10389;SDS011;5241;47.830;12.972;2022-11-03T08:06:58;10.00;;;8.13;;
10389;SDS011;5241;47.830;12.972;2022-11-03T08:09:23;12.03;;;8.17;;
10389;SDS011;5241;47.830;12.972;2022-11-03T08:11:50;9.53;;;7.67;;
10389;SDS011;5241;47.830;12.972;2022-11-03T08:14:15;9.90;;;7.27;;
10389;SDS011;5241;47.830;12.972;2022-11-03T08:16:41;8.60;;;7.43;;
10389;SDS011;5241;47.830;12.972;2022-11-03T08:19:07;8.03;;;7.13;;
10389;SDS011;5241;47.830;12.972;2022-11-03T08:21:33;9.10;;;8.03;;
10389;SDS011;5241;47.830;12.972;2022-11-03T08:23:58;10.13;;;8.60;;
10389;SDS011;5241;47.830;12.972;2022-11-03T08:26:24;12.10;;;9.17;;
10389;SDS011;5241;47.830;12.972;2022-11-03T08:28:50;9.93;;;8.13;;
10389;SDS011;5241;47.830;12.972;2022-11-03T08:31:16;11.53;;;8.30;;
10389;SDS011;5241;47.830;12.972;2022-11-03T08:33:42;11.53;;;8.40;;
10389;SDS011;5241;47.830;12.972;2022-11-03T08:36:07;11.87;;;9.00;;
10389;SDS011;5241;47.830;12.972;2022-11-03T08:38:34;13.57;;;8.70;;
10389;SDS011;5241;47.830;12.972;2022-11-03T08:41:00;11.23;;;8.17;;
10389;SDS011;5241;47.830;12.972;2022-11-03T08:43:26;12.63;;;8.97;;
10389;SDS011;5241;47.830;12.972;2022-11-03T08:45:52;11.30;;;9.73;;
10389;SDS011;5241;47.830;12.972;2022-11-03T08:48:21;13.20;;;11.03;;
10389;SDS011;5241;47.830;12.972;2022-11-03T08:50:53;13.50;;;10.63;;
10389;SDS011;5241;47.830;12.972;2022-11-03T08:53:20;14.97;;;10.90;;
10389;SDS011;5241;47.830;12.972;2022-11-03T08:55:46;16.20;;;11.13;;
10389;SDS011;5241;47.830;12.972;2022-11-03T08:58:12;16.40;;;9.53;;
10389;SDS011;5241;47.830;12.972;2022-11-03T09:00:37;11.57;;;9.60;;
10389;SDS011;5241;47.830;12.972;2022-11-03T09:03:03;11.33;;;9.40;;
10389;SDS011;5241;47.830;12.972;2022-11-03T09:05:29;11.80;;;10.33;;
10389;SDS011;5241;47.830;12.972;2022-11-03T09:07:55;12.70;;;10.33;;
10389;SDS011;5241;47.830;12.972;2022-11-03T09:10:20;11.80;;;9.90;;
10389;SDS011;5241;47.830;12.972;2022-11-03T09:12:46;16.67;;;11.63;;
10389;SDS011;5241;47.830;12.972;2022-11-03T09:15:11;14.90;;;11.87;;
10389;SDS011;5241;47.830;12.972;2022-11-03T09:17:37;13.63;;;10.53;;
10389;SDS011;5241;47.830;12.972;2022-11-03T09:20:03;15.37;;;11.80;;
10389;SDS011;5241;47.830;12.972;2022-11-03T09:22:30;18.00;;;12.30;;
10389;SDS011;5241;47.830;12.972;2022-11-03T09:24:55;13.33;;;10.87;;
10389;SDS011;5241;47.830;12.972;2022-11-03T09:27:21;11.87;;;10.57;;
10389;SDS011;5241;47.830;12.972;2022-11-03T09:29:47;13.80;;;10.90;;
10389;SDS011;5241;47.830;12.972;2022-11-03T09:32:12;11.07;;;9.83;;
10389;SDS011;5241;47.830;12.972;2022-11-03T09:34:38;11.63;;;10.43;;
10389;SDS011;5241;47.830;12.972;2022-11-03T09:37:03;11.17;;;9.97;;
10389;SDS011;5241;47.830;12.972;2022-11-03T09:39:29;10.67;;;9.57;;
10389;SDS011;5241;47.830;12.972;2022-11-03T09:41:54;11.17;;;8.87;;
10389;SDS011;5241;47.830;12.972;2022-11-03T09:44:22;9.23;;;8.33;;
10389;SDS011;5241;47.830;12.972;2022-11-03T09:46:48;9.57;;;8.57;;
10389;SDS011;5241;47.830;12.972;2022-11-03T09:49:15;8.83;;;7.73;;
10389;SDS011;5241;47.830;12.972;2022-11-03T09:51:43;9.83;;;8.20;;
10389;SDS011;5241;47.830;12.972;2022-11-03T09:54:11;9.00;;;8.10;;
10389;SDS011;5241;47.830;12.972;2022-11-03T09:56:41;9.23;;;8.27;;
10389;SDS011;5241;47.830;12.972;2022-11-03T09:59:17;9.07;;;7.53;;
10389;SDS011;5241;47.830;12.972;2022-11-03T10:01:45;9.43;;;8.17;;
10389;SDS011;5241;47.830;12.972;2022-11-03T10:04:14;9.70;;;7.43;;
10389;SDS011;5241;47.830;12.972;2022-11-03T10:06:42;8.90;;;8.10;;
10389;SDS011;5241;47.830;12.972;2022-11-03T10:09:09;7.73;;;7.03;;
10389;SDS011;5241;47.830;12.972;2022-11-03T10:11:39;8.20;;;7.43;;
10389;SDS011;5241;47.830;12.972;2022-11-03T10:14:06;8.80;;;7.90;;
10389;SDS011;5241;47.830;12.972;2022-11-03T10:16:36;7.80;;;7.10;;
10389;SDS011;5241;47.830;12.972;2022-11-03T10:19:02;8.53;;;7.63;;
10389;SDS011;5241;47.830;12.972;2022-11-03T10:21:28;7.87;;;7.07;;
10389;SDS011;5241;47.830;12.972;2022-11-03T10:23:57;7.70;;;6.87;;
10389;SDS011;5241;47.830;12.972;2022-11-03T10:26:23;8.27;;;7.13;;
10389;SDS011;5241;47.830;12.972;2022-11-03T10:31:34;8.00;;;7.20;;
10389;SDS011;5241;47.830;12.972;2022-11-03T10:34:04;8.67;;;7.80;;
10389;SDS011;5241;47.830;12.972;2022-11-03T10:36:46;9.63;;;7.20;;
10389;SDS011;5241;47.830;12.972;2022-11-03T10:39:22;7.80;;;7.07;;
10389;SDS011;5241;47.830;12.972;2022-11-03T10:41:56;11.07;;;7.43;;
10389;SDS011;5241;47.830;12.972;2022-11-03T10:44:24;8.77;;;7.87;;
10389;SDS011;5241;47.830;12.972;2022-11-03T10:47:02;7.33;;;6.63;;
10389;SDS011;5241;47.830;12.972;2022-11-03T10:49:29;9.37;;;7.80;;
10389;SDS011;5241;47.830;12.972;2022-11-03T10:51:59;8.23;;;7.43;;
10389;SDS011;5241;47.830;12.972;2022-11-03T10:54:44;8.13;;;7.30;;
10389;SDS011;5241;47.830;12.972;2022-11-03T10:57:11;8.33;;;7.10;;
10389;SDS011;5241;47.830;12.972;2022-11-03T10:59:37;8.50;;;7.60;;
10389;SDS011;5241;47.830;12.972;2022-11-03T11:02:16;9.57;;;7.27;;
10389;SDS011;5241;47.830;12.972;2022-11-03T11:04:55;8.17;;;6.70;;
10389;SDS011;5241;47.830;12.972;2022-11-03T11:07:28;7.87;;;6.67;;
10389;SDS011;5241;47.830;12.972;2022-11-03T11:10:04;8.20;;;7.40;;
10389;SDS011;5241;47.830;12.972;2022-11-03T11:12:31;8.40;;;7.70;;
10389;SDS011;5241;47.830;12.972;2022-11-03T11:14:58;9.23;;;8.00;;
10389;SDS011;5241;47.830;12.972;2022-11-03T11:20:30;8.60;;;7.80;;
10389;SDS011;5241;47.830;12.972;2022-11-03T11:28:41;9.57;;;7.60;;
10389;SDS011;5241;47.830;12.972;2022-11-03T11:36:42;9.17;;;8.23;;
10389;SDS011;5241;47.830;12.972;2022-11-03T11:52:38;10.83;;;7.80;;
10389;SDS011;5241;47.830;12.972;2022-11-03T11:55:05;7.80;;;7.10;;
10389;SDS011;5241;47.830;12.972;2022-11-03T11:57:40;8.63;;;7.73;;
10389;SDS011;5241;47.830;12.972;2022-11-03T12:00:16;8.73;;;7.60;;
10389;SDS011;5241;47.830;12.972;2022-11-03T12:02:46;8.67;;;7.77;;
10389;SDS011;5241;47.830;12.972;2022-11-03T12:05:23;9.07;;;8.07;;
10389;SDS011;5241;47.830;12.972;2022-11-03T12:07:55;8.40;;;7.60;;
10389;SDS011;5241;47.830;12.972;2022-11-03T12:10:23;9.60;;;8.17;;
10389;SDS011;5241;47.830;12.972;2022-11-03T12:12:50;8.27;;;7.43;;
10389;SDS011;5241;47.830;12.972;2022-11-03T12:18:28;8.57;;;7.67;;
10389;SDS011;5241;47.830;12.972;2022-11-03T12:21:04;9.37;;;8.50;;
10389;SDS011;5241;47.830;12.972;2022-11-03T12:23:37;9.33;;;8.43;;
10389;SDS011;5241;47.830;12.972;2022-11-03T12:29:04;9.60;;;8.60;;
10389;SDS011;5241;47.830;12.972;2022-11-03T12:31:30;10.50;;;9.33;;
10389;SDS011;5241;47.830;12.972;2022-11-03T12:33:55;10.23;;;9.23;;
10389;SDS011;5241;47.830;12.972;2022-11-03T12:36:21;10.20;;;9.20;;
10389;SDS011;5241;47.830;12.972;2022-11-03T12:38:46;10.27;;;9.17;;
10389;SDS011;5241;47.830;12.972;2022-11-03T12:41:12;10.77;;;9.30;;
10389;SDS011;5241;47.830;12.972;2022-11-03T12:43:49;10.93;;;8.83;;
10389;SDS011;5241;47.830;12.972;2022-11-03T12:46:20;9.87;;;8.87;;
10389;SDS011;5241;47.830;12.972;2022-11-03T12:48:46;11.33;;;9.07;;
10389;SDS011;5241;47.830;12.972;2022-11-03T12:51:12;10.27;;;9.23;;
10389;SDS011;5241;47.830;12.972;2022-11-03T12:53:39;10.80;;;9.53;;
10389;SDS011;5241;47.830;12.972;2022-11-03T12:56:05;12.00;;;10.20;;
10389;SDS011;5241;47.830;12.972;2022-11-03T12:58:31;10.07;;;9.07;;
10389;SDS011;5241;47.830;12.972;2022-11-03T13:00:57;10.50;;;9.40;;
10389;SDS011;5241;47.830;12.972;2022-11-03T13:03:23;9.27;;;8.23;;
10389;SDS011;5241;47.830;12.972;2022-11-03T13:05:48;9.43;;;8.37;;
10389;SDS011;5241;47.830;12.972;2022-11-03T13:08:14;10.27;;;8.83;;
10389;SDS011;5241;47.830;12.972;2022-11-03T13:10:40;10.13;;;9.10;;
10389;SDS011;5241;47.830;12.972;2022-11-03T13:13:06;9.53;;;8.63;;
10389;SDS011;5241;47.830;12.972;2022-11-03T13:15:31;9.47;;;8.57;;
10389;SDS011;5241;47.830;12.972;2022-11-03T13:17:57;9.87;;;8.87;;
10389;SDS011;5241;47.830;12.972;2022-11-03T13:20:22;12.47;;;9.93;;
10389;SDS011;5241;47.830;12.972;2022-11-03T13:22:48;12.17;;;9.40;;
10389;SDS011;5241;47.830;12.972;2022-11-03T13:25:14;10.30;;;9.03;;
10389;SDS011;5241;47.830;12.972;2022-11-03T13:27:40;10.37;;;8.97;;
10389;SDS011;5241;47.830;12.972;2022-11-03T13:30:06;10.97;;;9.83;;
10389;SDS011;5241;47.830;12.972;2022-11-03T13:32:32;11.70;;;10.07;;
10389;SDS011;5241;47.830;12.972;2022-11-03T13:34:58;10.17;;;8.90;;
10389;SDS011;5241;47.830;12.972;2022-11-03T13:37:24;10.83;;;9.73;;
10389;SDS011;5241;47.830;12.972;2022-11-03T13:39:50;10.23;;;9.17;;
10389;SDS011;5241;47.830;12.972;2022-11-03T13:42:15;13.97;;;10.60;;
10389;SDS011;5241;47.830;12.972;2022-11-03T13:44:41;12.73;;;10.43;;
10389;SDS011;5241;47.830;12.972;2022-11-03T13:47:07;10.63;;;9.50;;
10389;SDS011;5241;47.830;12.972;2022-11-03T13:49:32;13.47;;;9.87;;
10389;SDS011;5241;47.830;12.972;2022-11-03T13:51:58;10.87;;;9.37;;
10389;SDS011;5241;47.830;12.972;2022-11-03T13:54:23;12.67;;;9.23;;
10389;SDS011;5241;47.830;12.972;2022-11-03T13:56:49;10.63;;;9.53;;
10389;SDS011;5241;47.830;12.972;2022-11-03T13:59:14;13.40;;;9.83;;
10389;SDS011;5241;47.830;12.972;2022-11-03T14:01:40;11.00;;;9.80;;
10389;SDS011;5241;47.830;12.972;2022-11-03T14:04:06;10.30;;;9.23;;
10389;SDS011;5241;47.830;12.972;2022-11-03T14:06:32;11.00;;;9.90;;
10389;SDS011;5241;47.830;12.972;2022-11-03T14:08:57;10.17;;;8.97;;
10389;SDS011;5241;47.830;12.972;2022-11-03T14:11:23;12.53;;;10.13;;
10389;SDS011;5241;47.830;12.972;2022-11-03T14:14:09;10.43;;;9.40;;
10389;SDS011;5241;47.830;12.972;2022-11-03T14:16:34;13.60;;;11.00;;
10389;SDS011;5241;47.830;12.972;2022-11-03T14:19:00;11.93;;;10.47;;
10389;SDS011;5241;47.830;12.972;2022-11-03T14:21:25;11.67;;;10.50;;
10389;SDS011;5241;47.830;12.972;2022-11-03T14:23:51;14.77;;;11.40;;
10389;SDS011;5241;47.830;12.972;2022-11-03T14:26:16;12.20;;;10.20;;
10389;SDS011;5241;47.830;12.972;2022-11-03T14:28:42;13.67;;;10.23;;
10389;SDS011;5241;47.830;12.972;2022-11-03T14:31:07;12.60;;;10.50;;
10389;SDS011;5241;47.830;12.972;2022-11-03T14:33:33;13.03;;;10.70;;
10389;SDS011;5241;47.830;12.972;2022-11-03T14:35:59;12.20;;;10.90;;
10389;SDS011;5241;47.830;12.972;2022-11-03T14:38:24;12.63;;;10.30;;
10389;SDS011;5241;47.830;12.972;2022-11-03T14:40:50;11.37;;;10.27;;
10389;SDS011;5241;47.830;12.972;2022-11-03T14:43:34;11.77;;;10.57;;
10389;SDS011;5241;47.830;12.972;2022-11-03T14:45:59;12.17;;;10.30;;
10389;SDS011;5241;47.830;12.972;2022-11-03T14:48:25;13.67;;;11.47;;
10389;SDS011;5241;47.830;12.972;2022-11-03T14:50:50;12.70;;;11.30;;
10389;SDS011;5241;47.830;12.972;2022-11-03T14:53:17;14.07;;;10.93;;
10389;SDS011;5241;47.830;12.972;2022-11-03T14:55:42;12.63;;;10.73;;
10389;SDS011;5241;47.830;12.972;2022-11-03T14:58:08;12.30;;;11.00;;
10389;SDS011;5241;47.830;12.972;2022-11-03T15:00:33;12.80;;;11.17;;
10389;SDS011;5241;47.830;12.972;2022-11-03T15:02:59;12.73;;;11.43;;
10389;SDS011;5241;47.830;12.972;2022-11-03T15:05:25;13.30;;;11.30;;
10389;SDS011;5241;47.830;12.972;2022-11-03T15:08:22;14.00;;;11.70;;
10389;SDS011;5241;47.830;12.972;2022-11-03T15:10:49;12.60;;;11.13;;
10389;SDS011;5241;47.830;12.972;2022-11-03T15:13:15;12.10;;;10.90;;
10389;SDS011;5241;47.830;12.972;2022-11-03T15:15:41;21.43;;;17.47;;
10389;SDS011;5241;47.830;12.972;2022-11-03T15:18:07;16.60;;;14.43;;
10389;SDS011;5241;47.830;12.972;2022-11-03T15:20:33;15.30;;;13.47;;
10389;SDS011;5241;47.830;12.972;2022-11-03T15:23:00;14.80;;;13.37;;
10389;SDS011;5241;47.830;12.972;2022-11-03T15:25:27;14.67;;;12.47;;
10389;SDS011;5241;47.830;12.972;2022-11-03T15:27:53;18.73;;;13.00;;
10389;SDS011;5241;47.830;12.972;2022-11-03T15:30:18;18.77;;;14.73;;
10389;SDS011;5241;47.830;12.972;2022-11-03T15:32:44;18.00;;;16.10;;
10389;SDS011;5241;47.830;12.972;2022-11-03T15:35:09;15.47;;;12.93;;
10389;SDS011;5241;47.830;12.972;2022-11-03T15:37:35;14.90;;;13.33;;
10389;SDS011;5241;47.830;12.972;2022-11-03T15:40:01;14.53;;;13.03;;
10389;SDS011;5241;47.830;12.972;2022-11-03T15:42:26;16.57;;;14.00;;
10389;SDS011;5241;47.830;12.972;2022-11-03T15:44:52;21.07;;;16.33;;
10389;SDS011;5241;47.830;12.972;2022-11-03T15:47:18;18.77;;;16.00;;
10389;SDS011;5241;47.830;12.972;2022-11-03T15:49:43;19.17;;;15.20;;
10389;SDS011;5241;47.830;12.972;2022-11-03T15:52:09;19.13;;;16.40;;
10389;SDS011;5241;47.830;12.972;2022-11-03T15:54:34;17.10;;;14.63;;
10389;SDS011;5241;47.830;12.972;2022-11-03T15:57:00;15.50;;;13.63;;
10389;SDS011;5241;47.830;12.972;2022-11-03T15:59:25;23.33;;;16.87;;